Wetterdaten: Woche 06.10.25 - 12.10.25 (KW41)
Datum Zeit Temp. I. Temp. A. Feuchte I. Feuchte A. Luftdruck Regen Wind Richtung Sonnenschein Solar Taupunkt Windchill Windböen
06.10.2025 00:00 20,8 °C 11,1 °C 61 % 85 % 1012,8 hPa 0,0 l/m² 18,6 km/h (3 Bft) SW 0,00 h 0 W/m² 8,6 °C 5,1 °C 25,7 km/h (4 Bft)
06.10.2025 01:00 20,9 °C 11,1 °C 61 % 85 % 1013,2 hPa 0,0 l/m² 19,2 km/h (3 Bft) SW 0,00 h 0 W/m² 8,6 °C 4,9 °C 26,3 km/h (4 Bft)
06.10.2025 02:00 20,8 °C 11,1 °C 61 % 85 % 1013,4 hPa 0,0 l/m² 17,6 km/h (3 Bft) SW 0,00 h 0 W/m² 8,6 °C 5,5 °C 23,8 km/h (4 Bft)
06.10.2025 03:00 20,8 °C 11,1 °C 61 % 85 % 1013,6 hPa 0,0 l/m² 17,5 km/h (3 Bft) SW 0,00 h 0 W/m² 8,7 °C 5,5 °C 24,0 km/h (4 Bft)
06.10.2025 04:00 20,8 °C 10,9 °C 61 % 86 % 1014,0 hPa 0,0 l/m² 15,3 km/h (3 Bft) SW 0,00 h 0 W/m² 8,6 °C 6,3 °C 20,1 km/h (4 Bft)
06.10.2025 05:00 20,8 °C 10,8 °C 61 % 85 % 1014,3 hPa 0,0 l/m² 14,1 km/h (3 Bft) SW 0,00 h 0 W/m² 8,4 °C 6,6 °C 19,5 km/h (3 Bft)
06.10.2025 06:00 20,8 °C 10,6 °C 61 % 85 % 1015,1 hPa 0,0 l/m² 16,6 km/h (3 Bft) W-SW 0,00 h 0 W/m² 8,2 °C 5,3 °C 22,1 km/h (4 Bft)
06.10.2025 07:00 20,8 °C 10,2 °C 60 % 86 % 1015,6 hPa 0,0 l/m² 14,7 km/h (3 Bft) W-SW 0,00 h 16 W/m² 8,0 °C 5,5 °C 20,3 km/h (4 Bft)
06.10.2025 08:00 20,8 °C 10,5 °C 60 % 84 % 1016,2 hPa 0,0 l/m² 19,1 km/h (3 Bft) W-SW 0,90 h 109 W/m² 8,0 °C 4,3 °C 25,6 km/h (4 Bft)
06.10.2025 09:00 20,8 °C 11,5 °C 60 % 82 % 1017,0 hPa 0,0 l/m² 19,5 km/h (3 Bft) W-SW 1,00 h 97 W/m² 8,5 °C 5,4 °C 26,5 km/h (4 Bft)
06.10.2025 10:00 20,8 °C 11,1 °C 60 % 86 % 1017,7 hPa 0,2 l/m² 14,2 km/h (3 Bft) W-SW 0,93 h 75 W/m² 8,8 °C 6,9 °C 19,9 km/h (4 Bft)
06.10.2025 11:00 20,7 °C 10,8 °C 60 % 89 % 1018,2 hPa 0,4 l/m² 16,1 km/h (3 Bft) W-SW 1,00 h 85 W/m² 9,0 °C 5,7 °C 21,5 km/h (4 Bft)
06.10.2025 12:00 20,7 °C 11,7 °C 60 % 89 % 1018,4 hPa 0,0 l/m² 15,3 km/h (3 Bft) W-SW 0,97 h 124 W/m² 10,0 °C 7,2 °C 21,4 km/h (4 Bft)
06.10.2025 13:00 20,7 °C 11,7 °C 60 % 89 % 1018,6 hPa 0,2 l/m² 14,7 km/h (3 Bft) W-SW 0,45 h 59 W/m² 9,9 °C 7,4 °C 19,9 km/h (4 Bft)
06.10.2025 14:00 20,7 °C 12,0 °C 59 % 90 % 1018,7 hPa 0,0 l/m² 17,3 km/h (3 Bft) W-SW 0,93 h 81 W/m² 10,4 °C 6,8 °C 23,6 km/h (4 Bft)
06.10.2025 15:00 20,7 °C 12,9 °C 59 % 90 % 1018,7 hPa 0,0 l/m² 14,7 km/h (3 Bft) W-SW 1,00 h 116 W/m² 11,3 °C 8,8 °C 20,0 km/h (4 Bft)
06.10.2025 16:00 20,7 °C 13,4 °C 59 % 86 % 1018,9 hPa 0,0 l/m² 13,4 km/h (3 Bft) W-SW 0,27 h 36 W/m² 11,1 °C 9,9 °C 18,9 km/h (3 Bft)
06.10.2025 17:00 20,7 °C 13,3 °C 60 % 86 % 1019,3 hPa 0,0 l/m² 15,4 km/h (3 Bft) W-SW 0,05 h 29 W/m² 11,0 °C 9,1 °C 20,7 km/h (4 Bft)
06.10.2025 18:00 20,7 °C 13,0 °C 61 % 87 % 1019,6 hPa 0,0 l/m² 13,3 km/h (3 Bft) W-SW 0,00 h 9 W/m² 10,9 °C 9,5 °C 18,8 km/h (3 Bft)
06.10.2025 19:00 20,8 °C 12,8 °C 61 % 88 % 1020,1 hPa 0,0 l/m² 9,4 km/h (2 Bft) W-SW 0,00 h 0 W/m² 10,9 °C 11,0 °C 14,9 km/h (3 Bft)
06.10.2025 20:00 20,8 °C 13,2 °C 61 % 89 % 1020,5 hPa 0,0 l/m² 8,2 km/h (2 Bft) W 0,00 h 0 W/m² 11,3 °C 12,0 °C 14,7 km/h (3 Bft)
06.10.2025 21:00 21,0 °C 13,0 °C 61 % 90 % 1021,1 hPa 0,2 l/m² 6,1 km/h (2 Bft) W 0,00 h 0 W/m² 11,4 °C 12,7 °C 11,4 km/h (2 Bft)
06.10.2025 22:00 21,1 °C 12,9 °C 61 % 91 % 1021,6 hPa 0,0 l/m² 4,8 km/h (1 Bft) W 0,00 h 0 W/m² 11,5 °C 12,8 °C 9,9 km/h (2 Bft)
06.10.2025 23:00 21,1 °C 12,9 °C 61 % 91 % 1021,9 hPa 0,0 l/m² 2,9 km/h (1 Bft) W-NW 0,00 h 0 W/m² 11,4 °C 12,9 °C 7,8 km/h (2 Bft)
07.10.2025 00:00 21,0 °C 12,8 °C 61 % 91 % 1022,1 hPa 0,0 l/m² 2,0 km/h (1 Bft) W 0,00 h 0 W/m² 11,4 °C 12,8 °C 5,5 km/h (2 Bft)
07.10.2025 01:00 20,9 °C 12,8 °C 61 % 91 % 1022,3 hPa 0,0 l/m² 2,6 km/h (1 Bft) W 0,00 h 0 W/m² 11,4 °C 12,8 °C 6,0 km/h (2 Bft)
07.10.2025 02:00 20,8 °C 12,7 °C 61 % 92 % 1022,5 hPa 0,0 l/m² 1,7 km/h (1 Bft) W 0,00 h 0 W/m² 11,4 °C 12,7 °C 4,1 km/h (1 Bft)
07.10.2025 03:00 20,8 °C 12,4 °C 61 % 92 % 1022,5 hPa 0,0 l/m² 0,1 km/h (0 Bft) N 0,00 h 0 W/m² 11,1 °C 12,4 °C 0,7 km/h (0 Bft)
07.10.2025 04:00 20,8 °C 12,1 °C 61 % 92 % 1022,7 hPa 0,2 l/m² 0,7 km/h (0 Bft) N 0,00 h 0 W/m² 10,9 °C 12,1 °C 1,2 km/h (1 Bft)
07.10.2025 05:00 21,0 °C 12,0 °C 61 % 92 % 1023,0 hPa 0,0 l/m² 1,2 km/h (1 Bft) W 0,00 h 0 W/m² 10,9 °C 12,0 °C 3,4 km/h (1 Bft)
07.10.2025 06:00 21,0 °C 11,9 °C 61 % 93 % 1023,3 hPa 0,0 l/m² 0,9 km/h (0 Bft) W 0,00 h 0 W/m² 10,8 °C 11,9 °C 2,2 km/h (1 Bft)
07.10.2025 07:00 21,0 °C 11,9 °C 61 % 93 % 1023,7 hPa 0,2 l/m² 1,2 km/h (1 Bft) W 0,00 h 5 W/m² 10,8 °C 11,9 °C 2,2 km/h (1 Bft)
07.10.2025 08:00 21,0 °C 12,0 °C 61 % 93 % 1024,1 hPa 0,4 l/m² 0,0 km/h (0 Bft) N 0,00 h 13 W/m² 10,9 °C 12,0 °C 0,1 km/h (0 Bft)
07.10.2025 09:00 20,9 °C 12,3 °C 60 % 93 % 1024,4 hPa 0,0 l/m² 0,0 km/h (0 Bft) N 0,00 h 38 W/m² 11,3 °C 12,3 °C 0,0 km/h (0 Bft)
07.10.2025 10:00 20,9 °C 13,1 °C 60 % 94 % 1024,6 hPa 0,0 l/m² 1,2 km/h (1 Bft) W-SW 0,98 h 107 W/m² 12,2 °C 13,1 °C 2,7 km/h (1 Bft)
07.10.2025 11:00 21,0 °C 14,1 °C 60 % 94 % 1024,6 hPa 0,0 l/m² 4,9 km/h (1 Bft) SW 1,00 h 167 W/m² 13,1 °C 14,0 °C 7,0 km/h (2 Bft)
07.10.2025 12:00 21,1 °C 15,4 °C 61 % 91 % 1024,5 hPa 0,0 l/m² 6,3 km/h (2 Bft) SW 0,97 h 240 W/m² 14,0 °C 15,0 °C 8,4 km/h (2 Bft)
07.10.2025 13:00 21,1 °C 15,6 °C 61 % 87 % 1024,4 hPa 0,2 l/m² 0,6 km/h (0 Bft) SW 0,52 h 52 W/m² 13,5 °C 15,6 °C 1,4 km/h (1 Bft)
07.10.2025 14:00 21,1 °C 15,4 °C 61 % 88 % 1024,1 hPa 0,0 l/m² 3,6 km/h (1 Bft) W-SW 1,00 h 113 W/m² 13,4 °C 15,3 °C 5,2 km/h (1 Bft)
07.10.2025 15:00 21,2 °C 15,6 °C 61 % 86 % 1023,9 hPa 0,0 l/m² 0,2 km/h (0 Bft) N 0,97 h 112 W/m² 13,3 °C 15,6 °C 0,7 km/h (0 Bft)
07.10.2025 16:00 21,1 °C 15,9 °C 61 % 86 % 1023,8 hPa 0,0 l/m² 0,1 km/h (0 Bft) N 0,00 h 28 W/m² 13,5 °C 15,9 °C 0,2 km/h (0 Bft)
07.10.2025 17:00 21,1 °C 15,6 °C 62 % 87 % 1023,6 hPa 0,0 l/m² 0,2 km/h (0 Bft) N 0,00 h 29 W/m² 13,5 °C 15,6 °C 0,5 km/h (0 Bft)
07.10.2025 18:00 21,2 °C 15,2 °C 63 % 88 % 1023,6 hPa 0,0 l/m² 0,1 km/h (0 Bft) N 0,00 h 8 W/m² 13,3 °C 15,2 °C 0,3 km/h (0 Bft)
07.10.2025 19:00 21,3 °C 14,7 °C 63 % 89 % 1023,8 hPa 0,0 l/m² 0,0 km/h (0 Bft) N 0,00 h 0 W/m² 12,9 °C 14,7 °C 0,0 km/h (0 Bft)
07.10.2025 20:00 21,3 °C 14,3 °C 63 % 90 % 1023,7 hPa 0,0 l/m² 0,4 km/h (0 Bft) N 0,00 h 0 W/m² 12,7 °C 14,3 °C 0,7 km/h (0 Bft)
07.10.2025 21:00 21,3 °C 14,1 °C 64 % 91 % 1023,6 hPa 0,2 l/m² 2,2 km/h (1 Bft) W-SW 0,00 h 0 W/m² 12,6 °C 14,1 °C 3,4 km/h (1 Bft)
07.10.2025 22:00 21,3 °C 14,0 °C 64 % 91 % 1023,5 hPa 1,0 l/m² 0,9 km/h (0 Bft) W-SW 0,00 h 0 W/m² 12,5 °C 14,0 °C 1,7 km/h (1 Bft)
07.10.2025 23:00 21,1 °C 13,8 °C 64 % 91 % 1023,3 hPa 0,8 l/m² 1,3 km/h (1 Bft) W-SW 0,00 h 0 W/m² 12,4 °C 13,8 °C 2,3 km/h (1 Bft)
08.10.2025 00:00 21,1 °C 13,8 °C 64 % 92 % 1023,0 hPa 0,4 l/m² 0,1 km/h (0 Bft) W-SW 0,00 h 0 W/m² 12,5 °C 13,8 °C 0,1 km/h (0 Bft)
08.10.2025 01:00 21,2 °C 13,7 °C 64 % 92 % 1022,8 hPa 0,8 l/m² 0,0 km/h (0 Bft) W-SW 0,00 h 0 W/m² 12,4 °C 13,7 °C 0,0 km/h (0 Bft)
08.10.2025 02:00 21,1 °C 13,7 °C 64 % 93 % 1022,5 hPa 0,0 l/m² 0,0 km/h (0 Bft) W-SW 0,00 h 0 W/m² 12,5 °C 13,7 °C 0,0 km/h (0 Bft)
08.10.2025 03:00 21,1 °C 13,7 °C 64 % 93 % 1022,1 hPa 0,0 l/m² 0,0 km/h (0 Bft) W-SW 0,00 h 0 W/m² 12,5 °C 13,7 °C 0,0 km/h (0 Bft)
08.10.2025 04:00 21,1 °C 13,8 °C 64 % 93 % 1021,6 hPa 0,0 l/m² 0,0 km/h (0 Bft) W-SW 0,00 h 0 W/m² 12,7 °C 13,8 °C 0,0 km/h (0 Bft)
08.10.2025 05:00 21,1 °C 13,7 °C 64 % 94 % 1021,3 hPa 0,0 l/m² 0,0 km/h (0 Bft) W-SW 0,00 h 0 W/m² 12,7 °C 13,7 °C 0,0 km/h (0 Bft)
08.10.2025 06:00 21,1 °C 13,7 °C 64 % 94 % 1021,2 hPa 0,0 l/m² 0,0 km/h (0 Bft) W-SW 0,00 h 0 W/m² 12,8 °C 13,7 °C 0,0 km/h (0 Bft)
08.10.2025 07:00 21,1 °C 13,7 °C 63 % 94 % 1021,2 hPa 0,0 l/m² 0,9 km/h (0 Bft) W-SW 0,00 h 9 W/m² 12,7 °C 13,7 °C 1,3 km/h (1 Bft)
08.10.2025 08:00 21,1 °C 13,9 °C 63 % 94 % 1021,2 hPa 0,0 l/m² 1,1 km/h (1 Bft) W-SW 0,00 h 32 W/m² 12,9 °C 13,9 °C 2,1 km/h (1 Bft)
08.10.2025 09:00 21,1 °C 14,4 °C 63 % 94 % 1021,2 hPa 0,0 l/m² 2,8 km/h (1 Bft) W-SW 0,60 h 59 W/m² 13,4 °C 14,4 °C 4,9 km/h (1 Bft)
08.10.2025 10:00 21,1 °C 14,8 °C 63 % 94 % 1021,4 hPa 0,0 l/m² 0,3 km/h (0 Bft) W-SW 0,72 h 57 W/m² 13,9 °C 14,8 °C 1,1 km/h (0 Bft)
08.10.2025 11:00 21,1 °C 15,1 °C 63 % 94 % 1021,2 hPa 0,4 l/m² 0,6 km/h (0 Bft) W-SW 0,42 h 48 W/m² 14,1 °C 15,1 °C 1,2 km/h (1 Bft)
08.10.2025 12:00 21,1 °C 15,0 °C 63 % 94 % 1021,1 hPa 0,4 l/m² 0,2 km/h (0 Bft) W-SW 0,35 h 49 W/m² 14,0 °C 15,0 °C 1,2 km/h (1 Bft)
08.10.2025 13:00 21,1 °C 14,9 °C 62 % 94 % 1020,8 hPa 0,2 l/m² 0,0 km/h (0 Bft) W-SW 0,53 h 57 W/m² 14,0 °C 14,9 °C 0,0 km/h (0 Bft)
08.10.2025 14:00 21,1 °C 14,9 °C 62 % 94 % 1020,5 hPa 0,0 l/m² 0,3 km/h (0 Bft) W-SW 0,00 h 31 W/m² 13,9 °C 14,9 °C 0,8 km/h (0 Bft)
08.10.2025 15:00 21,1 °C 14,9 °C 63 % 94 % 1020,2 hPa 0,0 l/m² 0,0 km/h (0 Bft) W-SW 0,38 h 50 W/m² 13,9 °C 14,9 °C 0,0 km/h (0 Bft)
08.10.2025 16:00 21,0 °C 14,9 °C 63 % 94 % 1020,1 hPa 0,0 l/m² 0,0 km/h (0 Bft) W-SW 0,00 h 29 W/m² 14,0 °C 14,9 °C 0,0 km/h (0 Bft)
08.10.2025 17:00 21,0 °C 14,7 °C 63 % 94 % 1020,1 hPa 0,6 l/m² 0,6 km/h (0 Bft) W-SW 0,00 h 10 W/m² 13,8 °C 14,7 °C 1,7 km/h (1 Bft)
08.10.2025 18:00 21,2 °C 14,4 °C 65 % 94 % 1020,4 hPa 0,4 l/m² 0,2 km/h (0 Bft) W-NW 0,00 h 6 W/m² 13,4 °C 14,4 °C 0,7 km/h (0 Bft)
08.10.2025 19:00 21,2 °C 14,2 °C 64 % 94 % 1020,5 hPa 0,0 l/m² 0,3 km/h (0 Bft) W-NW 0,00 h 0 W/m² 13,2 °C 14,2 °C 0,7 km/h (0 Bft)
08.10.2025 20:00 21,2 °C 14,0 °C 64 % 94 % 1020,7 hPa 0,0 l/m² 0,4 km/h (0 Bft) W-NW 0,00 h 0 W/m² 13,0 °C 14,0 °C 1,5 km/h (1 Bft)
08.10.2025 21:00 21,1 °C 13,8 °C 64 % 94 % 1020,8 hPa 0,0 l/m² 0,3 km/h (0 Bft) W 0,00 h 0 W/m² 12,8 °C 13,8 °C 0,8 km/h (0 Bft)
08.10.2025 22:00 21,1 °C 13,3 °C 65 % 94 % 1020,9 hPa 0,0 l/m² 2,5 km/h (1 Bft) NW 0,00 h 0 W/m² 12,4 °C 13,2 °C 5,5 km/h (2 Bft)
08.10.2025 23:00 21,1 °C 13,0 °C 65 % 94 % 1021,0 hPa 0,0 l/m² 0,9 km/h (0 Bft) W 0,00 h 0 W/m² 12,1 °C 13,0 °C 1,7 km/h (1 Bft)
09.10.2025 00:00 21,2 °C 12,8 °C 65 % 94 % 1020,9 hPa 0,0 l/m² 0,3 km/h (0 Bft) W 0,00 h 0 W/m² 11,9 °C 12,8 °C 1,0 km/h (0 Bft)
09.10.2025 01:00 21,2 °C 12,6 °C 65 % 94 % 1021,1 hPa 0,0 l/m² 0,1 km/h (0 Bft) W-SW 0,00 h 0 W/m² 11,7 °C 12,6 °C 0,6 km/h (0 Bft)
09.10.2025 02:00 21,1 °C 12,5 °C 66 % 94 % 1021,1 hPa 0,0 l/m² 1,0 km/h (0 Bft) W 0,00 h 0 W/m² 11,5 °C 12,5 °C 4,0 km/h (1 Bft)
09.10.2025 03:00 21,1 °C 12,4 °C 66 % 94 % 1020,9 hPa 0,0 l/m² 0,3 km/h (0 Bft) W-SW 0,00 h 0 W/m² 11,5 °C 12,4 °C 1,7 km/h (1 Bft)
09.10.2025 04:00 21,1 °C 12,4 °C 66 % 94 % 1020,9 hPa 0,0 l/m² 0,6 km/h (0 Bft) W-SW 0,00 h 0 W/m² 11,5 °C 12,4 °C 1,9 km/h (1 Bft)
09.10.2025 05:00 21,1 °C 12,5 °C 66 % 94 % 1020,9 hPa 0,4 l/m² 0,1 km/h (0 Bft) W-SW 0,00 h 0 W/m² 11,5 °C 12,5 °C 0,6 km/h (0 Bft)
09.10.2025 06:00 21,1 °C 12,4 °C 65 % 94 % 1021,4 hPa 0,8 l/m² 7,3 km/h (2 Bft) N-NW 0,00 h 0 W/m² 11,4 °C 11,5 °C 14,3 km/h (3 Bft)
09.10.2025 07:00 21,1 °C 12,1 °C 65 % 94 % 1021,8 hPa 0,2 l/m² 0,8 km/h (0 Bft) W-NW 0,00 h 8 W/m² 11,1 °C 12,1 °C 3,3 km/h (1 Bft)
09.10.2025 08:00 21,1 °C 12,0 °C 64 % 94 % 1022,5 hPa 0,0 l/m² 1,3 km/h (1 Bft) W 0,43 h 44 W/m² 11,1 °C 12,0 °C 4,0 km/h (1 Bft)
09.10.2025 09:00 21,2 °C 13,3 °C 64 % 95 % 1022,9 hPa 0,0 l/m² 0,8 km/h (0 Bft) W 0,98 h 284 W/m² 12,4 °C 13,3 °C 2,6 km/h (1 Bft)
09.10.2025 10:00 21,4 °C 15,3 °C 64 % 89 % 1023,1 hPa 0,0 l/m² 3,6 km/h (1 Bft) W-NW 1,00 h 415 W/m² 13,4 °C 15,3 °C 7,9 km/h (2 Bft)
09.10.2025 11:00 21,4 °C 17,1 °C 64 % 76 % 1023,3 hPa 0,0 l/m² 4,9 km/h (1 Bft) W 1,00 h 424 W/m² 12,8 °C 17,0 °C 10,2 km/h (2 Bft)
09.10.2025 12:00 21,4 °C 17,0 °C 64 % 74 % 1023,3 hPa 0,0 l/m² 5,5 km/h (2 Bft) W 1,00 h 480 W/m² 12,4 °C 16,8 °C 11,1 km/h (2 Bft)
09.10.2025 13:00 21,3 °C 17,8 °C 64 % 69 % 1023,2 hPa 0,0 l/m² 8,1 km/h (2 Bft) W-NW 1,00 h 280 W/m² 12,0 °C 16,9 °C 14,8 km/h (3 Bft)
09.10.2025 14:00 21,3 °C 17,0 °C 64 % 72 % 1023,2 hPa 0,0 l/m² 5,6 km/h (2 Bft) W-NW 1,00 h 273 W/m² 12,0 °C 16,8 °C 11,1 km/h (2 Bft)
09.10.2025 15:00 21,3 °C 18,2 °C 64 % 69 % 1023,2 hPa 0,0 l/m² 7,4 km/h (2 Bft) W-NW 1,00 h 385 W/m² 12,5 °C 17,5 °C 14,2 km/h (3 Bft)
09.10.2025 16:00 21,3 °C 17,7 °C 64 % 70 % 1023,4 hPa 0,0 l/m² 6,2 km/h (2 Bft) W-NW 0,90 h 173 W/m² 12,1 °C 17,3 °C 13,1 km/h (3 Bft)
09.10.2025 17:00 21,2 °C 16,0 °C 63 % 74 % 1023,7 hPa 0,0 l/m² 4,1 km/h (1 Bft) W 0,13 h 37 W/m² 11,3 °C 16,0 °C 8,7 km/h (2 Bft)
09.10.2025 18:00 21,2 °C 14,9 °C 63 % 77 % 1024,2 hPa 0,0 l/m² 2,8 km/h (1 Bft) W-NW 0,00 h 0 W/m² 10,9 °C 14,9 °C 7,0 km/h (2 Bft)
09.10.2025 19:00 21,2 °C 14,2 °C 63 % 80 % 1024,6 hPa 0,0 l/m² 3,4 km/h (1 Bft) W 0,00 h 0 W/m² 10,7 °C 14,2 °C 6,9 km/h (2 Bft)
09.10.2025 20:00 21,2 °C 13,5 °C 63 % 80 % 1024,8 hPa 0,0 l/m² 3,4 km/h (1 Bft) W 0,00 h 0 W/m² 10,1 °C 13,5 °C 7,1 km/h (2 Bft)
09.10.2025 21:00 21,3 °C 12,4 °C 62 % 83 % 1025,4 hPa 0,0 l/m² 1,8 km/h (1 Bft) W 0,00 h 0 W/m² 9,5 °C 12,4 °C 4,7 km/h (1 Bft)
09.10.2025 22:00 21,2 °C 12,4 °C 61 % 86 % 1025,6 hPa 0,0 l/m² 3,0 km/h (1 Bft) W-SW 0,00 h 0 W/m² 10,1 °C 12,4 °C 5,6 km/h (2 Bft)
09.10.2025 23:00 21,2 °C 12,5 °C 62 % 86 % 1025,8 hPa 0,0 l/m² 7,0 km/h (2 Bft) SW 0,00 h 0 W/m² 10,2 °C 11,9 °C 9,7 km/h (2 Bft)
10.10.2025 00:00 21,2 °C 12,3 °C 62 % 87 % 1026,0 hPa 0,0 l/m² 8,8 km/h (2 Bft) SW 0,00 h 0 W/m² 10,2 °C 10,8 °C 12,2 km/h (2 Bft)
10.10.2025 01:00 21,1 °C 12,2 °C 62 % 87 % 1026,0 hPa 0,0 l/m² 10,0 km/h (2 Bft) SW 0,00 h 0 W/m² 10,0 °C 10,0 °C 14,7 km/h (3 Bft)
10.10.2025 02:00 21,1 °C 12,1 °C 62 % 86 % 1025,9 hPa 0,0 l/m² 9,4 km/h (2 Bft) W-SW 0,00 h 0 W/m² 9,8 °C 10,3 °C 13,8 km/h (3 Bft)
10.10.2025 03:00 21,1 °C 12,2 °C 63 % 85 % 1025,8 hPa 0,0 l/m² 11,7 km/h (2 Bft) W-SW 0,00 h 0 W/m² 9,8 °C 9,2 °C 16,4 km/h (3 Bft)
10.10.2025 04:00 21,0 °C 12,2 °C 63 % 85 % 1025,9 hPa 0,0 l/m² 10,6 km/h (2 Bft) W-SW 0,00 h 0 W/m² 9,8 °C 9,8 °C 15,4 km/h (3 Bft)
10.10.2025 05:00 21,0 °C 12,0 °C 63 % 87 % 1025,9 hPa 0,0 l/m² 12,3 km/h (2 Bft) SW 0,00 h 0 W/m² 9,9 °C 8,7 °C 17,5 km/h (3 Bft)
10.10.2025 06:00 21,0 °C 12,1 °C 62 % 87 % 1026,5 hPa 0,0 l/m² 8,4 km/h (2 Bft) W-SW 0,00 h 0 W/m² 10,0 °C 10,8 °C 13,0 km/h (3 Bft)
10.10.2025 07:00 21,0 °C 12,0 °C 61 % 88 % 1026,8 hPa 0,0 l/m² 5,8 km/h (2 Bft) W-SW 0,00 h 15 W/m² 10,1 °C 11,5 °C 9,9 km/h (2 Bft)
10.10.2025 08:00 21,0 °C 12,2 °C 62 % 89 % 1027,5 hPa 0,0 l/m² 5,5 km/h (2 Bft) W-SW 0,32 h 47 W/m² 10,5 °C 11,7 °C 9,9 km/h (2 Bft)
10.10.2025 09:00 21,1 °C 13,4 °C 62 % 87 % 1028,2 hPa 0,0 l/m² 11,1 km/h (2 Bft) W-NW 0,90 h 149 W/m² 11,3 °C 10,9 °C 18,1 km/h (3 Bft)
10.10.2025 10:00 21,1 °C 14,7 °C 62 % 82 % 1029,0 hPa 0,0 l/m² 10,6 km/h (2 Bft) W 1,00 h 258 W/m² 11,7 °C 12,5 °C 18,1 km/h (3 Bft)
10.10.2025 11:00 21,2 °C 15,9 °C 61 % 75 % 1029,4 hPa 0,0 l/m² 8,9 km/h (2 Bft) W-NW 1,00 h 239 W/m² 11,6 °C 14,6 °C 16,8 km/h (3 Bft)
10.10.2025 12:00 21,1 °C 15,2 °C 62 % 78 % 1029,8 hPa 0,0 l/m² 10,0 km/h (2 Bft) W 0,98 h 153 W/m² 11,4 °C 13,5 °C 18,1 km/h (3 Bft)
10.10.2025 13:00 21,1 °C 15,3 °C 62 % 77 % 1029,7 hPa 0,0 l/m² 13,3 km/h (3 Bft) W 1,02 h 182 W/m² 11,3 °C 12,2 °C 21,7 km/h (4 Bft)
10.10.2025 14:00 21,0 °C 15,2 °C 61 % 76 % 1029,6 hPa 0,0 l/m² 10,7 km/h (2 Bft) W 1,00 h 94 W/m² 11,0 °C 13,1 °C 18,0 km/h (3 Bft)
10.10.2025 15:00 20,9 °C 15,2 °C 59 % 75 % 1029,6 hPa 0,0 l/m² 10,7 km/h (2 Bft) W 0,80 h 65 W/m² 10,8 °C 13,1 °C 16,9 km/h (3 Bft)
10.10.2025 16:00 20,9 °C 15,1 °C 58 % 76 % 1029,6 hPa 0,0 l/m² 10,4 km/h (2 Bft) W-SW 0,00 h 30 W/m² 11,0 °C 13,1 °C 15,0 km/h (3 Bft)
10.10.2025 17:00 21,0 °C 14,8 °C 58 % 79 % 1029,9 hPa 0,0 l/m² 1,5 km/h (1 Bft) W 0,00 h 10 W/m² 11,2 °C 14,8 °C 3,1 km/h (1 Bft)
10.10.2025 18:00 21,1 °C 14,4 °C 59 % 82 % 1030,2 hPa 0,0 l/m² 2,3 km/h (1 Bft) W-SW 0,00 h 5 W/m² 11,4 °C 14,4 °C 3,8 km/h (1 Bft)
10.10.2025 19:00 21,2 °C 14,0 °C 60 % 84 % 1030,5 hPa 0,0 l/m² 2,9 km/h (1 Bft) W-SW 0,00 h 0 W/m² 11,4 °C 14,0 °C 4,7 km/h (1 Bft)
10.10.2025 20:00 21,3 °C 13,8 °C 61 % 85 % 1030,8 hPa 0,0 l/m² 3,4 km/h (1 Bft) W-SW 0,00 h 0 W/m² 11,3 °C 13,8 °C 6,0 km/h (2 Bft)
10.10.2025 21:00 21,6 °C 13,8 °C 62 % 85 % 1030,8 hPa 0,0 l/m² 3,9 km/h (1 Bft) W-SW 0,00 h 0 W/m² 11,4 °C 13,8 °C 6,5 km/h (2 Bft)
10.10.2025 22:00 21,6 °C 13,8 °C 62 % 85 % 1030,8 hPa 0,0 l/m² 6,3 km/h (2 Bft) W-SW 0,00 h 0 W/m² 11,4 °C 13,5 °C 10,1 km/h (2 Bft)
10.10.2025 23:00 21,4 °C 13,9 °C 62 % 85 % 1031,0 hPa 0,0 l/m² 4,0 km/h (1 Bft) W-SW 0,00 h 0 W/m² 11,4 °C 13,8 °C 6,2 km/h (2 Bft)
11.10.2025 00:00 21,2 °C 13,7 °C 62 % 86 % 1031,0 hPa 0,0 l/m² 4,0 km/h (1 Bft) SW 0,00 h 0 W/m² 11,4 °C 13,7 °C 5,9 km/h (2 Bft)
11.10.2025 01:00 21,2 °C 13,6 °C 62 % 88 % 1030,8 hPa 0,0 l/m² 5,4 km/h (2 Bft) W-SW 0,00 h 0 W/m² 11,6 °C 13,6 °C 7,7 km/h (2 Bft)
11.10.2025 02:00 21,2 °C 13,6 °C 62 % 88 % 1030,8 hPa 0,0 l/m² 5,7 km/h (2 Bft) W-SW 0,00 h 0 W/m² 11,7 °C 13,5 °C 8,4 km/h (2 Bft)
11.10.2025 03:00 21,2 °C 13,7 °C 62 % 88 % 1030,7 hPa 0,0 l/m² 6,8 km/h (2 Bft) W-SW 0,00 h 0 W/m² 11,7 °C 13,3 °C 11,4 km/h (2 Bft)
11.10.2025 04:00 21,2 °C 14,0 °C 62 % 85 % 1030,7 hPa 0,0 l/m² 7,1 km/h (2 Bft) W 0,00 h 0 W/m² 11,6 °C 13,2 °C 12,5 km/h (2 Bft)
11.10.2025 05:00 21,2 °C 14,0 °C 62 % 84 % 1031,0 hPa 0,0 l/m² 9,0 km/h (2 Bft) W 0,00 h 0 W/m² 11,4 °C 12,6 °C 15,2 km/h (3 Bft)
11.10.2025 06:00 21,2 °C 13,7 °C 62 % 84 % 1031,0 hPa 0,0 l/m² 7,1 km/h (2 Bft) W 0,00 h 0 W/m² 11,1 °C 13,0 °C 12,5 km/h (2 Bft)
11.10.2025 07:00 21,2 °C 13,4 °C 62 % 86 % 1031,1 hPa 0,0 l/m² 6,0 km/h (2 Bft) W 0,00 h 5 W/m² 11,1 °C 13,0 °C 11,1 km/h (2 Bft)
11.10.2025 08:00 21,2 °C 13,3 °C 63 % 87 % 1031,4 hPa 0,0 l/m² 6,8 km/h (2 Bft) W 0,00 h 18 W/m² 11,2 °C 12,7 °C 12,3 km/h (2 Bft)
11.10.2025 09:00 21,3 °C 13,5 °C 64 % 86 % 1031,6 hPa 0,0 l/m² 7,5 km/h (2 Bft) W 0,08 h 46 W/m² 11,2 °C 12,6 °C 13,3 km/h (3 Bft)
11.10.2025 10:00 21,2 °C 13,9 °C 62 % 84 % 1031,8 hPa 0,0 l/m² 9,2 km/h (2 Bft) W 0,83 h 67 W/m² 11,2 °C 12,3 °C 15,4 km/h (3 Bft)
11.10.2025 11:00 21,1 °C 14,5 °C 61 % 82 % 1031,6 hPa 0,0 l/m² 9,8 km/h (2 Bft) W 1,00 h 114 W/m² 11,4 °C 12,7 °C 15,5 km/h (3 Bft)
11.10.2025 12:00 21,2 °C 14,9 °C 63 % 82 % 1031,5 hPa 0,0 l/m² 9,7 km/h (2 Bft) W 1,00 h 140 W/m² 11,8 °C 13,2 °C 17,0 km/h (3 Bft)
11.10.2025 13:00 21,3 °C 15,3 °C 62 % 78 % 1031,3 hPa 0,0 l/m² 11,2 km/h (2 Bft) W 0,98 h 139 W/m² 11,4 °C 13,0 °C 19,0 km/h (3 Bft)
11.10.2025 14:00 21,3 °C 15,7 °C 62 % 75 % 1030,9 hPa 0,0 l/m² 8,5 km/h (2 Bft) W 1,02 h 102 W/m² 11,3 °C 14,5 °C 15,1 km/h (3 Bft)
11.10.2025 15:00 21,2 °C 15,6 °C 62 % 77 % 1030,8 hPa 0,0 l/m² 7,6 km/h (2 Bft) W 0,63 h 58 W/m² 11,6 °C 14,8 °C 13,4 km/h (3 Bft)
11.10.2025 16:00 21,2 °C 15,2 °C 62 % 79 % 1030,8 hPa 0,0 l/m² 5,9 km/h (2 Bft) W 0,00 h 26 W/m² 11,6 °C 14,8 °C 11,0 km/h (2 Bft)
11.10.2025 17:00 21,2 °C 14,8 °C 62 % 81 % 1030,8 hPa 0,0 l/m² 3,4 km/h (1 Bft) W 0,00 h 10 W/m² 11,5 °C 14,8 °C 6,1 km/h (2 Bft)
11.10.2025 18:00 21,1 °C 14,4 °C 62 % 82 % 1030,8 hPa 0,0 l/m² 3,4 km/h (1 Bft) W 0,00 h 0 W/m² 11,4 °C 14,3 °C 6,5 km/h (2 Bft)
11.10.2025 19:00 21,1 °C 14,0 °C 62 % 82 % 1030,9 hPa 0,0 l/m² 7,2 km/h (2 Bft) W-SW 0,00 h 0 W/m² 11,1 °C 13,4 °C 11,4 km/h (2 Bft)
11.10.2025 20:00 21,1 °C 13,9 °C 62 % 82 % 1030,8 hPa 0,0 l/m² 5,9 km/h (2 Bft) W-SW 0,00 h 0 W/m² 10,9 °C 13,6 °C 9,0 km/h (2 Bft)
11.10.2025 21:00 21,0 °C 13,6 °C 62 % 82 % 1030,9 hPa 0,0 l/m² 3,0 km/h (1 Bft) W-SW 0,00 h 0 W/m² 10,6 °C 13,6 °C 5,5 km/h (2 Bft)
11.10.2025 22:00 21,1 °C 13,5 °C 63 % 82 % 1030,9 hPa 0,0 l/m² 1,9 km/h (1 Bft) W-SW 0,00 h 0 W/m² 10,5 °C 13,5 °C 3,5 km/h (1 Bft)
11.10.2025 23:00 21,1 °C 13,2 °C 64 % 83 % 1030,9 hPa 0,0 l/m² 0,3 km/h (0 Bft) W-SW 0,00 h 0 W/m² 10,5 °C 13,2 °C 1,6 km/h (1 Bft)
12.10.2025 00:00 21,1 °C 13,0 °C 64 % 84 % 1030,6 hPa 0,0 l/m² 2,0 km/h (1 Bft) W-SW 0,00 h 0 W/m² 10,4 °C 13,0 °C 4,3 km/h (1 Bft)
12.10.2025 01:00 21,1 °C 13,0 °C 64 % 85 % 1030,5 hPa 0,0 l/m² 1,1 km/h (0 Bft) W 0,00 h 0 W/m² 10,5 °C 13,0 °C 3,4 km/h (1 Bft)
12.10.2025 02:00 21,1 °C 12,9 °C 64 % 85 % 1029,9 hPa 0,0 l/m² 2,6 km/h (1 Bft) W-SW 0,00 h 0 W/m² 10,5 °C 12,9 °C 4,7 km/h (1 Bft)
12.10.2025 03:00 21,1 °C 12,7 °C 64 % 85 % 1029,5 hPa 0,0 l/m² 1,4 km/h (1 Bft) W 0,00 h 0 W/m² 10,3 °C 12,7 °C 4,1 km/h (1 Bft)
12.10.2025 04:00 21,1 °C 12,6 °C 64 % 86 % 1029,4 hPa 0,0 l/m² 2,7 km/h (1 Bft) W 0,00 h 0 W/m² 10,4 °C 12,6 °C 6,0 km/h (2 Bft)
12.10.2025 05:00 21,0 °C 12,8 °C 64 % 86 % 1029,1 hPa 0,0 l/m² 3,2 km/h (1 Bft) W 0,00 h 0 W/m² 10,5 °C 12,8 °C 5,9 km/h (2 Bft)
12.10.2025 06:00 21,0 °C 12,7 °C 64 % 87 % 1028,8 hPa 0,0 l/m² 2,3 km/h (1 Bft) W 0,00 h 0 W/m² 10,5 °C 12,7 °C 4,9 km/h (1 Bft)
12.10.2025 07:00 20,9 °C 12,4 °C 64 % 87 % 1028,6 hPa 0,0 l/m² 1,3 km/h (1 Bft) W-SW 0,00 h 8 W/m² 10,3 °C 12,4 °C 3,1 km/h (1 Bft)
12.10.2025 08:00 20,9 °C 12,5 °C 64 % 87 % 1028,7 hPa 0,0 l/m² 4,9 km/h (1 Bft) W 0,55 h 54 W/m² 10,3 °C 12,1 °C 8,8 km/h (2 Bft)
12.10.2025 09:00 21,0 °C 13,1 °C 63 % 84 % 1028,7 hPa 0,0 l/m² 8,2 km/h (2 Bft) W 0,77 h 77 W/m² 10,4 °C 11,9 °C 13,6 km/h (3 Bft)
12.10.2025 10:00 21,0 °C 13,8 °C 61 % 81 % 1028,4 hPa 0,0 l/m² 9,6 km/h (2 Bft) W 1,00 h 206 W/m² 10,5 °C 12,0 °C 15,7 km/h (3 Bft)
12.10.2025 11:00 21,0 °C 14,8 °C 61 % 75 % 1028,1 hPa 0,0 l/m² 10,6 km/h (2 Bft) W 1,00 h 180 W/m² 10,3 °C 12,6 °C 17,1 km/h (3 Bft)
12.10.2025 12:00 22,0 °C 14,8 °C 60 % 75 % 1027,8 hPa 0,0 l/m² 10,8 km/h (2 Bft) W 0,98 h 159 W/m² 10,4 °C 12,6 °C 17,5 km/h (3 Bft)
12.10.2025 13:00 27,6 °C 15,1 °C 48 % 74 % 1027,5 hPa 0,0 l/m² 11,9 km/h (2 Bft) W 1,02 h 186 W/m² 10,5 °C 12,5 °C 18,6 km/h (3 Bft)
12.10.2025 14:00 29,3 °C 15,4 °C 45 % 74 % 1027,2 hPa 0,0 l/m² 7,5 km/h (2 Bft) W 1,00 h 149 W/m² 10,7 °C 14,6 °C 14,6 km/h (3 Bft)
12.10.2025 15:00 27,8 °C 15,1 °C 46 % 76 % 1026,8 hPa 0,0 l/m² 6,8 km/h (2 Bft) W-SW 0,93 h 67 W/m² 10,8 °C 14,4 °C 12,2 km/h (2 Bft)
12.10.2025 16:00 30,0 °C 14,6 °C 43 % 79 % 1026,6 hPa 0,0 l/m² 7,6 km/h (2 Bft) SW 0,15 h 38 W/m² 11,1 °C 13,8 °C 10,6 km/h (2 Bft)
12.10.2025 17:00 28,6 °C 14,3 °C 44 % 81 % 1026,3 hPa 0,0 l/m² 4,0 km/h (1 Bft) W-SW 0,00 h 18 W/m² 11,1 °C 14,2 °C 7,7 km/h (2 Bft)
12.10.2025 18:00 26,7 °C 14,3 °C 47 % 80 % 1026,5 hPa 0,0 l/m² 3,2 km/h (1 Bft) W-NW 0,00 h 5 W/m² 11,0 °C 14,3 °C 7,9 km/h (2 Bft)
12.10.2025 19:00 25,3 °C 14,2 °C 50 % 82 % 1026,6 hPa 0,0 l/m² 3,5 km/h (1 Bft) W 0,00 h 0 W/m² 11,1 °C 14,1 °C 7,8 km/h (2 Bft)
12.10.2025 20:00 24,5 °C 13,9 °C 52 % 84 % 1026,7 hPa 0,0 l/m² 3,8 km/h (1 Bft) W 0,00 h 0 W/m² 11,2 °C 13,9 °C 7,7 km/h (2 Bft)
12.10.2025 21:00 24,1 °C 13,6 °C 54 % 86 % 1026,6 hPa 0,0 l/m² 5,0 km/h (1 Bft) W-SW 0,00 h 0 W/m² 11,3 °C 13,5 °C 8,6 km/h (2 Bft)
12.10.2025 22:00 23,8 °C 13,5 °C 55 % 88 % 1026,6 hPa 0,0 l/m² 3,4 km/h (1 Bft) W 0,00 h 0 W/m² 11,5 °C 13,5 °C 6,6 km/h (2 Bft)
12.10.2025 23:00 23,6 °C 13,6 °C 56 % 89 % 1026,4 hPa 0,0 l/m² 3,2 km/h (1 Bft) W 0,00 h 0 W/m² 11,8 °C 13,6 °C 7,1 km/h (2 Bft)
Min-Datum _ 06.10.25 06.10.25 12.10.25 09.10.25 06.10.25 - 12.10.25 - - - 06.10.25 06.10.25 12.10.25
_ Min-Zeit 20:00 07:54 16:18 15:54 00:14 - 23:15 - - - 07:54 08:33 19:00
Minimum _ 20,7 °C 9,9 °C 42 % 66 % 1012,6 hPa - 0,0 km/h (0 Bft) - - - 7,7 °C 2,1 °C 0,0 km/h (0 Bft)
Max-Datum _ 12.10.25 09.10.25 09.10.25 09.10.25 11.10.25 07.10.25 06.10.25 - 09.10.25 09.10.25 07.10.25 09.10.25 06.10.25
_ Max-Zeit 16:23 15:44 05:01 09:07 10:09 22:09 08:33 - 12:10 13:01 12:39 15:44 14:25
Maximum _ 30,2 °C 18,8 °C 66 % 95 % 1031,9 hPa 1,0 l/m² 25,9 km/h
W-SW (4 Bft)
- 0,15 h 747 W/m² 14,3 °C 18,8 °C 35,4 km/h
W-SW (5 Bft)
Durchschnitt _ 21,4 °C 13,6 °C 61 % 86 % 1024,7 hPa #8,6 l/m² 5,5 km/h (2 Bft) W-SW #44:21 h 48 W/m² 11,3 °C 12,7 °C 9,0 km/h (2 Bft)
© 2009 Mathias Hoßbach